»·PEaware :: N8462R KLAS-KLAS

N8462R :: KLAS-KLAS

FLIGHT INFORMATION

Flight Status: Arrived
Operator: Privately registered:
United States
More flights under this callsign
Pilot: Leon W. (20665)
Aircraft: BEECH AIRCRAFT A90-E90 KING AIR
(BE9L)
More flights by this aircraft type
Origin: KLAS McCarran Intl
United States
Destination: KLAS McCarran Intl
United States
More flights between these airports :: More routes between these airports
Route: +BLD
File this flight plan on PilotEdge
Remarks: PRACTICE ILS 26L
Altitude:
(Current/Filed)
9,000ft
Speed:
(Current/Filed)
180kts
Departed: 02-Oct-18 07:55 PM
Arrived: 02-Oct-18 08:18 PM
Distance/Time
Traveled:
1nm/0:23
Distance/Time
To Go:
Arrived

Flight Plot

Page will automatically refresh every two minutes.


Map Options




Map Legend


Flown Route
Filed Route
Departure Airport
Arrival Airport
Navaid (VOR, NDB)
Fix

Horizontal Profiles

Position Reports

Time Latitude Longitude Heading Altitude Ground
Speed
02-Oct-18 19:27 36.099460 -115.159749 116 2093ft 0kts
02-Oct-18 19:28 36.099460 -115.159749 116 2093ft 0kts
02-Oct-18 19:29 36.099460 -115.159749 116 2093ft 0kts
02-Oct-18 19:30 36.099460 -115.159749 116 2093ft 0kts
02-Oct-18 19:31 36.099460 -115.159749 116 2093ft 0kts
02-Oct-18 19:32 36.099460 -115.159749 116 2093ft 0kts
02-Oct-18 19:33 36.099460 -115.159749 116 2093ft 0kts
02-Oct-18 19:34 36.099460 -115.159749 116 2093ft 0kts
02-Oct-18 19:35 36.099460 -115.159749 116 2093ft 0kts
02-Oct-18 19:36 36.099460 -115.159749 116 2093ft 0kts
02-Oct-18 19:37 36.099460 -115.159749 116 2093ft 0kts
02-Oct-18 19:38 36.099460 -115.159749 116 2093ft 0kts
02-Oct-18 19:39 36.099460 -115.159749 116 2093ft 0kts
02-Oct-18 19:40 36.099460 -115.159749 116 2093ft 0kts
02-Oct-18 19:41 36.099460 -115.159749 116 2093ft 0kts
02-Oct-18 19:42 36.099460 -115.159749 116 2093ft 0kts
02-Oct-18 19:43 36.099460 -115.159749 116 2093ft 0kts
02-Oct-18 19:44 36.099460 -115.159749 116 2093ft 0kts
02-Oct-18 19:45 36.099460 -115.159749 116 2093ft 0kts
02-Oct-18 19:46 36.099460 -115.159749 116 2093ft 0kts
02-Oct-18 19:47 36.099460 -115.159749 116 2093ft 0kts
02-Oct-18 19:48 36.099460 -115.159749 116 2093ft 0kts
02-Oct-18 19:49 36.099460 -115.159749 116 2093ft 0kts
02-Oct-18 19:50 36.099460 -115.159749 116 2093ft 0kts
02-Oct-18 19:51 36.099460 -115.159749 116 2093ft 0kts
02-Oct-18 19:52 36.099529 -115.159355 56 2091ft 8kts
02-Oct-18 19:53 36.100248 -115.157561 97 2084ft 0kts
02-Oct-18 19:54 36.100248 -115.157561 97 2084ft 0kts
02-Oct-18 19:55 36.100248 -115.157561 97 2084ft 0kts
02-Oct-18 19:56 36.100225 -115.157217 105 2084ft 8kts
02-Oct-18 19:57 36.088400 -115.163151 198 2298ft 117kts
02-Oct-18 19:58 36.055472 -115.173546 189 3880ft 125kts
02-Oct-18 19:59 36.021101 -115.180976 184 4953ft 126kts
02-Oct-18 20:00 35.987168 -115.183986 164 6029ft 123kts
02-Oct-18 20:01 35.989899 -115.144152 71 7603ft 138kts
02-Oct-18 20:02 35.997459 -115.089074 93 8127ft 185kts
02-Oct-18 20:03 35.996598 -115.023852 92 7879ft 188kts
02-Oct-18 20:04 35.997344 -114.962883 87 8074ft 176kts
02-Oct-18 20:05 35.998763 -114.901469 94 7991ft 182kts
02-Oct-18 20:06 35.996449 -114.839437 89 8025ft 180kts
02-Oct-18 20:07 35.996179 -114.776685 90 8034ft 177kts
02-Oct-18 20:08 35.994734 -114.714818 91 7972ft 181kts
02-Oct-18 20:09 36.032830 -114.707862 331 7615ft 182kts
02-Oct-18 20:10 36.058396 -114.760702 294 6147ft 186kts
02-Oct-18 20:11 36.071832 -114.815813 270 5150ft 147kts
02-Oct-18 20:12 36.074938 -114.863541 266 4948ft 134kts
02-Oct-18 20:13 36.076516 -114.906353 262 4982ft 112kts
02-Oct-18 20:14 36.078016 -114.947175 269 4819ft 127kts
02-Oct-18 20:15 36.076861 -114.990039 266 4595ft 126kts
02-Oct-18 20:16 36.076525 -115.035325 263 3469ft 133kts
02-Oct-18 20:17 36.074991 -115.077159 261 2757ft 114kts
02-Oct-18 20:18 36.073746 -115.116261 266 2267ft 115kts
02-Oct-18 20:19 36.073654 -115.145914 266 2099ft 54kts
02-Oct-18 20:20 36.074358 -115.154331 297 2131ft 0kts
02-Oct-18 20:21 36.074358 -115.154331 297 2131ft 0kts
02-Oct-18 20:22 36.077028 -115.158015 333 2140ft 22kts
02-Oct-18 20:23 36.077486 -115.158184 358 2140ft 0kts
02-Oct-18 20:24 36.077486 -115.158184 358 2140ft 0kts
02-Oct-18 20:25 36.078032 -115.164862 270 2159ft 28kts
02-Oct-18 20:26 36.080411 -115.169816 25 2167ft 28kts
02-Oct-18 20:27 36.088751 -115.165012 29 2135ft 38kts
02-Oct-18 20:28 36.098031 -115.160332 328 2097ft 8kts

Navigation Log

Ident Type
Flight plan parsing failed, navigation log unavailable